Time;durP1;ratioP1;P1;durP2;ratioP2;P2;SDS_P1;SDS_P2;PMS_P1;PMS_P2;Temp;Humidity;BMP_temperature;BMP_pressure;BME280_temperature;BME280_humidity;BME280_pressure;Samples;Min_cycle;Max_cycle;Signal;HPM_P1;HPM_P2
2020/03/01 00:00:50;;;;;;;11.7;4.6;;;;;;;7.65;57.28613;925.9846;;;;
2020/03/01 00:03:15;;;;;;;15.6;5.2;;;;;;;7.7;56.15918;925.9417;;;;
2020/03/01 00:05:40;;;;;;;12.7;4.9;;;;;;;7.68;56.8584;926.0028;;;;
2020/03/01 00:08:06;;;;;;;17.9;4.9;;;;;;;7.76;56.75586;926.0225;;;;
2020/03/01 00:10:31;;;;;;;11.5;4.7;;;;;;;7.71;56.63672;925.9797;;;;
2020/03/01 00:12:56;;;;;;;15.6;5.2;;;;;;;7.69;56.74707;925.9972;;;;
2020/03/01 00:15:21;;;;;;;12.8;4.6;;;;;;;7.81;57.2832;926.0514;;;;
2020/03/01 00:18:07;;;;;;;12.7;4;;;;;;;7.55;54.91406;925.9192;;;;
2020/03/01 00:20:12;;;;;;;12.4;3.8;;;;;;;7.55;55.24219;926.0808;;;;
2020/03/01 00:23:02;;;;;;;12.1;3.7;;;;;;;7.44;57.01855;926.079;;;;
2020/03/01 00:25:02;;;;;;;12.1;4.1;;;;;;;7.54;56.08105;926.1473;;;;
2020/03/01 00:27:27;;;;;;;12.2;4.5;;;;;;;7.48;56.54785;926.0451;;;;
2020/03/01 00:29:52;;;;;;;10.8;4.1;;;;;;;7.42;56.31348;926.0387;;;;
2020/03/01 00:32:17;;;;;;;14.7;3.9;;;;;;;7.3;59.65234;926.1387;;;;
2020/03/01 00:34:42;;;;;;;9.1;3.5;;;;;;;7.39;59.67676;926.1951;;;;
2020/03/01 00:37:07;;;;;;;13.3;4.1;;;;;;;7.56;60.40332;926.1941;;;;
2020/03/01 00:39:32;;;;;;;12.8;3.6;;;;;;;7.54;63.47266;926.1989;;;;
2020/03/01 00:41:58;;;;;;;12.8;3.4;;;;;;;7.67;63.79883;926.1382;;;;
2020/03/01 00:44:23;;;;;;;12.1;3.5;;;;;;;7.77;64.42578;926.1548;;;;
2020/03/01 00:46:48;;;;;;;12;3.2;;;;;;;7.89;65.31836;926.0188;;;;
2020/03/01 00:49:13;;;;;;;11.4;3;;;;;;;7.83;66.58008;926.0316;;;;
2020/03/01 00:51:39;;;;;;;9.7;2.8;;;;;;;7.66;68.25488;925.9814;;;;
2020/03/01 00:54:04;;;;;;;9.5;2.7;;;;;;;7.72;68.12891;925.9267;;;;
2020/03/01 00:56:29;;;;;;;7.6;2.8;;;;;;;7.67;68.5166;925.8934;;;;
2020/03/01 00:58:54;;;;;;;11.4;2.8;;;;;;;7.63;68.27148;925.8395;;;;
2020/03/01 01:01:20;;;;;;;10.8;3.1;;;;;;;7.83;67.45215;925.9135;;;;
2020/03/01 01:03:45;;;;;;;10.6;3;;;;;;;7.79;67.79785;925.9623;;;;
2020/03/01 01:06:10;;;;;;;10.5;2.9;;;;;;;7.83;68.01953;926.007;;;;
2020/03/01 01:08:35;;;;;;;9.3;2.7;;;;;;;7.89;67.74609;926.0323;;;;
2020/03/01 01:11:00;;;;;;;9.3;3;;;;;;;7.87;68.07324;926.0648;;;;
2020/03/01 01:13:25;;;;;;;7.7;2.4;;;;;;;7.73;69.16211;926.0622;;;;
2020/03/01 01:15:50;;;;;;;8.9;2.6;;;;;;;7.68;69.91309;926.0075;;;;
2020/03/01 01:18:16;;;;;;;7.2;2.5;;;;;;;7.6;70.61426;926.084;;;;
2020/03/01 01:20:41;;;;;;;8.9;2.8;;;;;;;7.83;69.71191;926.079;;;;
2020/03/01 01:23:06;;;;;;;10.5;2.6;;;;;;;7.97;68.80078;926.022;;;;
2020/03/01 01:25:31;;;;;;;8.3;2.4;;;;;;;7.92;69.04395;925.98;;;;
2020/03/01 01:27:56;;;;;;;9.1;2.7;;;;;;;7.87;68.97949;925.9777;;;;
2020/03/01 01:30:22;;;;;;;8.2;2.8;;;;;;;7.93;68.45605;925.8889;;;;
2020/03/01 01:32:47;;;;;;;9.6;2.5;;;;;;;8;68.4209;925.9973;;;;
2020/03/01 01:35:12;;;;;;;6.7;2.2;;;;;;;7.99;68.4082;926.0893;;;;
2020/03/01 01:37:38;;;;;;;4.9;1.9;;;;;;;7.87;69.38867;926.1615;;;;
2020/03/01 01:40:03;;;;;;;5;1.9;;;;;;;7.82;69.50391;926.1155;;;;
2020/03/01 01:42:28;;;;;;;7.1;1.8;;;;;;;7.94;69.16016;926.1067;;;;
2020/03/01 01:44:53;;;;;;;4.8;1.6;;;;;;;7.94;69.20703;926.0743;;;;
2020/03/01 01:47:19;;;;;;;5;1.5;;;;;;;7.98;69.17871;926.1194;;;;
2020/03/01 01:49:44;;;;;;;5.3;1.4;;;;;;;7.74;70.33203;926.048;;;;
2020/03/01 01:52:09;;;;;;;3.4;1.5;;;;;;;7.89;69.66504;926.0553;;;;
2020/03/01 01:54:34;;;;;;;5.2;1.5;;;;;;;7.8;70.125;926.0344;;;;
2020/03/01 01:56:59;;;;;;;4.3;1.4;;;;;;;7.92;69.53125;926.0117;;;;
2020/03/01 01:59:24;;;;;;;3.4;1.3;;;;;;;7.66;70.62305;925.9797;;;;
2020/03/01 02:01:50;;;;;;;3.8;1.3;;;;;;;7.58;70.86133;925.9018;;;;
2020/03/01 02:04:15;;;;;;;2.8;1.2;;;;;;;7.64;70.81445;925.9679;;;;
2020/03/01 02:06:40;;;;;;;2.1;1.1;;;;;;;7.13;72.80176;925.9442;;;;
2020/03/01 02:09:05;;;;;;;3.2;1;;;;;;;7.31;71.9834;925.91;;;;
2020/03/01 02:11:30;;;;;;;2.6;1.1;;;;;;;7.39;71.75781;925.7628;;;;
2020/03/01 02:13:55;;;;;;;4.2;1.2;;;;;;;7.28;72.25;925.8331;;;;
2020/03/01 02:16:20;;;;;;;3;1;;;;;;;7.09;72.93262;925.8967;;;;
2020/03/01 02:18:46;;;;;;;3.2;1.1;;;;;;;7.22;72.5918;925.8655;;;;
2020/03/01 02:21:11;;;;;;;2.2;1;;;;;;;7.13;72.9502;925.8231;;;;
2020/03/01 02:23:37;;;;;;;2;1;;;;;;;7.19;72.7002;925.7924;;;;
2020/03/01 02:26:02;;;;;;;3.2;1.2;;;;;;;7.43;71.60645;925.8186;;;;
2020/03/01 02:28:27;;;;;;;2;0.9;;;;;;;7.42;71.48047;925.8391;;;;
2020/03/01 02:30:52;;;;;;;2.5;1;;;;;;;7.55;71.07227;925.8994;;;;
2020/03/01 02:33:17;;;;;;;2.6;1;;;;;;;7.54;71.17285;925.9659;;;;
2020/03/01 02:35:43;;;;;;;1.4;0.9;;;;;;;7.63;70.6543;925.9536;;;;
2020/03/01 02:38:08;;;;;;;2.5;1;;;;;;;7.54;71.00293;926.0174;;;;
2020/03/01 02:43:00;;;;;;;2.6;0.9;;;;;;;7.53;71.16992;925.8591;;;;
2020/03/01 02:48:46;;;;;;;3.1;1.1;;;;;;;7.43;71.64063;925.9167;;;;
2020/03/01 02:51:11;;;;;;;1.7;0.9;;;;;;;7.48;71.4209;925.9279;;;;
2020/03/01 02:53:37;;;;;;;6.2;1.3;;;;;;;7.38;71.58594;925.8823;;;;
2020/03/01 02:56:02;;;;;;;2.7;1;;;;;;;7.57;71.00879;925.9533;;;;
2020/03/01 02:58:27;;;;;;;1.8;0.8;;;;;;;7.43;71.4707;925.9706;;;;
2020/03/01 03:00:52;;;;;;;1.7;0.8;;;;;;;7.33;71.74902;926.0461;;;;
2020/03/01 03:03:17;;;;;;;1.5;0.7;;;;;;;7.32;71.95117;926.0438;;;;
2020/03/01 03:05:42;;;;;;;1.4;0.7;;;;;;;7.26;72.22363;926.0588;;;;
2020/03/01 03:08:07;;;;;;;2.6;1;;;;;;;7.4;71.64746;926.1888;;;;
2020/03/01 03:10:32;;;;;;;1.6;0.7;;;;;;;7.45;71.2373;926.3056;;;;
2020/03/01 03:12:57;;;;;;;1.9;0.8;;;;;;;7.33;71.93164;926.3851;;;;
2020/03/01 03:15:23;;;;;;;1.5;0.7;;;;;;;7.42;71.66309;926.3705;;;;
2020/03/01 03:17:48;;;;;;;1.8;0.9;;;;;;;7.48;71.56836;926.4292;;;;
2020/03/01 03:20:13;;;;;;;2.3;0.9;;;;;;;7.46;71.68066;926.3293;;;;
2020/03/01 03:22:39;;;;;;;2.9;0.7;;;;;;;7.26;72.5752;926.3873;;;;
2020/03/01 03:25:04;;;;;;;1.4;0.7;;;;;;;7.12;73.2207;926.5117;;;;
2020/03/01 03:27:29;;;;;;;1.2;0.6;;;;;;;7.02;74.03027;926.5287;;;;
2020/03/01 03:29:54;;;;;;;1.9;0.7;;;;;;;6.96;74.49512;926.6192;;;;
2020/03/01 03:32:19;;;;;;;1.1;0.6;;;;;;;6.75;75.56836;926.6608;;;;
2020/03/01 03:34:44;;;;;;;1.2;0.7;;;;;;;6.59;76.55762;926.6312;;;;
2020/03/01 03:37:10;;;;;;;2.8;0.9;;;;;;;6.55;77.41211;926.6761;;;;
2020/03/01 03:39:35;;;;;;;1.8;0.7;;;;;;;6.66;77.11328;926.658;;;;
2020/03/01 03:42:00;;;;;;;1.3;0.7;;;;;;;6.73;77.19434;926.7311;;;;
2020/03/01 03:44:25;;;;;;;0.9;0.5;;;;;;;6.85;76.87598;926.8047;;;;
2020/03/01 03:46:50;;;;;;;1.2;0.6;;;;;;;6.7;77.06348;926.8401;;;;
2020/03/01 03:49:16;;;;;;;2.2;0.5;;;;;;;6.58;78.29785;926.8779;;;;
2020/03/01 03:51:42;;;;;;;1.8;0.7;;;;;;;6.63;78.4873;926.9789;;;;
2020/03/01 03:54:07;;;;;;;1.7;0.7;;;;;;;6.65;78.55078;926.9593;;;;
2020/03/01 03:56:32;;;;;;;1.2;0.5;;;;;;;6.73;78.71094;927.0412;;;;
2020/03/01 03:58:57;;;;;;;1.4;0.6;;;;;;;6.88;77.91309;927.0834;;;;
2020/03/01 04:02:30;;;;;;;1.4;0.5;;;;;;;6.9;77.42871;927.1072;;;;
2020/03/01 04:04:55;;;;;;;1.6;0.6;;;;;;;6.9;77.42871;927.1895;;;;
2020/03/01 04:07:21;;;;;;;1.1;0.5;;;;;;;6.81;77.84277;927.0909;;;;
2020/03/01 04:09:46;;;;;;;1.1;0.7;;;;;;;6.81;78.05762;927.1708;;;;
2020/03/01 04:12:10;;;;;;;1.7;0.6;;;;;;;6.78;78.49316;927.2471;;;;
2020/03/01 04:14:35;;;;;;;1.2;0.6;;;;;;;6.87;78.09082;927.1775;;;;
2020/03/01 04:17:00;;;;;;;0.7;0.5;;;;;;;6.98;77.96484;927.1907;;;;
2020/03/01 04:19:25;;;;;;;1.7;0.5;;;;;;;7.05;77.4668;927.2317;;;;
2020/03/01 04:21:51;;;;;;;2.1;0.7;;;;;;;7.08;77.84668;927.1677;;;;
2020/03/01 04:24:16;;;;;;;1.1;0.6;;;;;;;6.92;78.00977;927.0123;;;;
2020/03/01 04:26:41;;;;;;;1;0.5;;;;;;;6.95;77.8125;927.0355;;;;
2020/03/01 04:29:07;;;;;;;0.9;0.6;;;;;;;6.94;77.83203;927.1541;;;;
2020/03/01 04:31:32;;;;;;;1.6;0.7;;;;;;;6.92;78.51758;927.1397;;;;
2020/03/01 04:33:57;;;;;;;0.9;0.7;;;;;;;6.99;77.9209;927.1376;;;;
2020/03/01 04:36:22;;;;;;;1.9;0.7;;;;;;;6.97;78.08789;927.1305;;;;
2020/03/01 04:38:47;;;;;;;1.6;0.7;;;;;;;6.95;78.14063;927.1494;;;;
2020/03/01 04:41:12;;;;;;;2.2;0.6;;;;;;;6.97;77.9502;927.1962;;;;
2020/03/01 04:43:38;;;;;;;1;0.7;;;;;;;7.04;77.94043;927.1556;;;;
2020/03/01 04:46:03;;;;;;;1.6;0.8;;;;;;;7.11;78.0332;927.0656;;;;
2020/03/01 04:48:28;;;;;;;0.9;0.7;;;;;;;6.98;78.54102;927.0831;;;;
2020/03/01 04:50:53;;;;;;;1.7;0.8;;;;;;;6.95;79.10059;927.0552;;;;
2020/03/01 04:53:18;;;;;;;2.4;0.8;;;;;;;6.96;79.50195;927.0995;;;;
2020/03/01 04:55:43;;;;;;;2.1;1.1;;;;;;;6.97;79.15039;927.0522;;;;
2020/03/01 04:58:09;;;;;;;2.7;0.8;;;;;;;7.03;79.37695;927.0859;;;;
2020/03/01 05:00:34;;;;;;;2.4;0.9;;;;;;;6.99;79.5293;927.0142;;;;
2020/03/01 05:02:59;;;;;;;2.4;1;;;;;;;6.95;79.64551;926.8843;;;;
2020/03/01 05:05:24;;;;;;;2.7;1.2;;;;;;;6.88;80.1416;926.9219;;;;
2020/03/01 05:07:49;;;;;;;2.5;1.5;;;;;;;6.83;80.74609;926.9344;;;;
2020/03/01 05:10:15;;;;;;;3.3;1.2;;;;;;;6.65;81.24023;926.8889;;;;
2020/03/01 05:12:40;;;;;;;2.1;1;;;;;;;6.4;81.2168;926.8425;;;;
2020/03/01 05:15:05;;;;;;;1.7;0.9;;;;;;;6.47;82.0127;926.78;;;;
2020/03/01 05:17:30;;;;;;;2.3;1;;;;;;;6.37;81.49609;926.6961;;;;
2020/03/01 05:19:55;;;;;;;2;1.1;;;;;;;6.27;82.07324;926.7658;;;;
2020/03/01 05:22:21;;;;;;;3.9;1.2;;;;;;;6.13;82.44238;926.7756;;;;
2020/03/01 05:24:46;;;;;;;2.3;1.1;;;;;;;6.14;82.00488;926.7299;;;;
2020/03/01 05:27:11;;;;;;;3;1.3;;;;;;;6.15;81.96191;926.7094;;;;
2020/03/01 05:29:36;;;;;;;2.9;1.1;;;;;;;6.08;80.72754;926.6844;;;;
2020/03/01 05:32:01;;;;;;;3;1.5;;;;;;;5.93;81.06152;926.6996;;;;
2020/03/01 05:34:26;;;;;;;3.9;1.5;;;;;;;5.85;80.11816;926.7128;;;;
2020/03/01 05:36:51;;;;;;;4.7;1.8;;;;;;;5.8;80.11914;926.81;;;;
2020/03/01 05:39:16;;;;;;;4;1.6;;;;;;;5.69;80.7334;926.7847;;;;
2020/03/01 05:41:41;;;;;;;4.6;1.5;;;;;;;5.85;81.20215;926.8029;;;;
2020/03/01 05:44:06;;;;;;;3.5;1.5;;;;;;;5.84;79.94727;926.7483;;;;
2020/03/01 05:46:32;;;;;;;1.9;1.1;;;;;;;5.73;79.17188;926.6429;;;;
2020/03/01 05:48:57;;;;;;;2.5;1.3;;;;;;;5.72;79.5752;926.6333;;;;
2020/03/01 05:51:22;;;;;;;1.5;0.9;;;;;;;5.77;80.33984;926.6297;;;;
2020/03/01 05:53:47;;;;;;;3;1.3;;;;;;;5.79;81.36133;926.573;;;;
2020/03/01 05:56:12;;;;;;;1.9;1;;;;;;;5.78;82.0127;926.5564;;;;
2020/03/01 05:58:37;;;;;;;5.8;1.3;;;;;;;5.97;81.5752;926.6223;;;;
2020/03/01 06:01:02;;;;;;;2.8;1.2;;;;;;;5.88;82.42969;926.5709;;;;
2020/03/01 06:03:27;;;;;;;3.1;1.3;;;;;;;5.93;82.83301;926.6324;;;;
2020/03/01 06:05:52;;;;;;;2.2;1.2;;;;;;;6.03;83.30469;926.65;;;;
2020/03/01 06:08:17;;;;;;;5.6;2.3;;;;;;;5.87;83.61328;926.6459;;;;
2020/03/01 06:10:43;;;;;;;2.8;1.7;;;;;;;5.73;84.13672;926.5836;;;;
2020/03/01 06:13:08;;;;;;;2.9;2.2;;;;;;;5.67;84.27246;926.6692;;;;
2020/03/01 06:15:33;;;;;;;2.8;1.8;;;;;;;5.55;84.9043;926.6567;;;;
2020/03/01 06:17:58;;;;;;;3.4;1.7;;;;;;;5.45;84.8623;926.633;;;;
2020/03/01 06:20:23;;;;;;;4.6;1.6;;;;;;;5.44;85.23242;926.7528;;;;
2020/03/01 06:22:48;;;;;;;6.4;1.7;;;;;;;5.63;84.94336;926.7028;;;;
2020/03/01 06:25:13;;;;;;;3.1;1.4;;;;;;;5.66;84.35156;926.6613;;;;
2020/03/01 06:27:38;;;;;;;2.8;1.2;;;;;;;5.74;83.70215;926.6429;;;;
2020/03/01 06:30:03;;;;;;;3;1.4;;;;;;;5.71;84.08984;926.6932;;;;
2020/03/01 06:32:28;;;;;;;4.7;1.6;;;;;;;5.66;84.50781;926.6769;;;;
2020/03/01 06:34:54;;;;;;;4.2;1.4;;;;;;;5.49;85.09473;926.6546;;;;
2020/03/01 06:37:19;;;;;;;5.8;1.6;;;;;;;5.56;85.26758;926.5945;;;;
2020/03/01 06:39:44;;;;;;;4.3;1.6;;;;;;;5.56;84.93066;926.5795;;;;
2020/03/01 06:42:10;;;;;;;7.1;2.4;;;;;;;5.73;84.68262;926.5908;;;;
2020/03/01 06:44:35;;;;;;;7.3;3.6;;;;;;;5.72;84.25;926.5606;;;;
2020/03/01 06:47:00;;;;;;;6;3.6;;;;;;;5.79;84.76074;926.4341;;;;
2020/03/01 06:49:25;;;;;;;6.5;2.4;;;;;;;;;;;;;
2020/03/01 06:51:50;;;;;;;4;2.3;;;;;;;;;;;;;
2020/03/01 06:54:15;;;;;;;7.1;2.6;;;;;;;;;;;;;
2020/03/01 06:56:40;;;;;;;6.2;2.3;;;;;;;;;;;;;
2020/03/01 06:59:05;;;;;;;2.4;1.3;;;;;;;;;;;;;
2020/03/01 07:01:31;;;;;;;4.4;2.3;;;;;;;;;;;;;
2020/03/01 07:03:56;;;;;;;4.7;2.8;;;;;;;;;;;;;
2020/03/01 07:06:21;;;;;;;6.7;3.3;;;;;;;;;;;;;
2020/03/01 07:08:46;;;;;;;6.4;2.9;;;;;;;;;;;;;
2020/03/01 07:11:11;;;;;;;5.7;3.2;;;;;;;;;;;;;
2020/03/01 07:13:36;;;;;;;6.7;2.5;;;;;;;;;;;;;
2020/03/01 07:16:01;;;;;;;5.1;2.3;;;;;;;;;;;;;
2020/03/01 07:18:26;;;;;;;5.2;2.8;;;;;;;;;;;;;
2020/03/01 07:20:52;;;;;;;5.7;2.5;;;;;;;;;;;;;
2020/03/01 07:23:17;;;;;;;3.4;2.1;;;;;;;;;;;;;
2020/03/01 07:25:42;;;;;;;4.2;2.5;;;;;;;;;;;;;
2020/03/01 07:28:09;;;;;;;5.5;3.5;;;;;;;;;;;;;
2020/03/01 07:30:32;;;;;;;7.5;4.3;;;;;;;;;;;;;
2020/03/01 07:32:57;;;;;;;5.7;3.5;;;;;;;;;;;;;
2020/03/01 07:35:22;;;;;;;5.8;3.3;;;;;;;;;;;;;
2020/03/01 07:37:47;;;;;;;6.8;2.9;;;;;;;;;;;;;
2020/03/01 07:40:12;;;;;;;3.7;2.4;;;;;;;;;;;;;
2020/03/01 07:42:37;;;;;;;5.3;2.7;;;;;;;;;;;;;
2020/03/01 07:45:03;;;;;;;3.6;2.3;;;;;;;;;;;;;
2020/03/01 07:47:28;;;;;;;5.2;2.8;;;;;;;;;;;;;
2020/03/01 07:49:53;;;;;;;5.8;2.5;;;;;;;;;;;;;
2020/03/01 07:52:18;;;;;;;5.1;2.6;;;;;;;;;;;;;
2020/03/01 07:54:43;;;;;;;5;2.7;;;;;;;;;;;;;
2020/03/01 07:57:08;;;;;;;5.3;2.2;;;;;;;;;;;;;
2020/03/01 07:59:33;;;;;;;3.8;1.9;;;;;;;;;;;;;
2020/03/01 08:01:58;;;;;;;3.5;1.9;;;;;;;;;;;;;
2020/03/01 08:04:23;;;;;;;5.2;2;;;;;;;;;;;;;
2020/03/01 08:06:48;;;;;;;4;1.7;;;;;;;;;;;;;
2020/03/01 08:09:13;;;;;;;4;1.8;;;;;;;;;;;;;
2020/03/01 08:11:39;;;;;;;3.2;1.7;;;;;;;;;;;;;
2020/03/01 08:14:04;;;;;;;5.7;3.5;;;;;;;;;;;;;
2020/03/01 08:16:29;;;;;;;11.9;5.7;;;;;;;;;;;;;
2020/03/01 08:18:54;;;;;;;6.5;4.9;;;;;;;;;;;;;
2020/03/01 08:21:19;;;;;;;7.4;5.4;;;;;;;;;;;;;
2020/03/01 08:23:44;;;;;;;10.9;6.8;;;;;;;;;;;;;
2020/03/01 08:26:09;;;;;;;6.8;4.3;;;;;;;;;;;;;
2020/03/01 08:28:34;;;;;;;4;2.7;;;;;;;;;;;;;
2020/03/01 08:30:59;;;;;;;3.9;2.5;;;;;;;;;;;;;
2020/03/01 08:33:24;;;;;;;5.1;3.3;;;;;;;;;;;;;
2020/03/01 08:35:50;;;;;;;6.6;4;;;;;;;;;;;;;
2020/03/01 08:38:15;;;;;;;7.2;4;;;;;;;;;;;;;
2020/03/01 08:40:40;;;;;;;6.3;4.5;;;;;;;;;;;;;
2020/03/01 08:43:05;;;;;;;6.3;4.4;;;;;;;;;;;;;
2020/03/01 08:45:30;;;;;;;8.4;4.1;;;;;;;;;;;;;
2020/03/01 08:47:55;;;;;;;5.4;3.2;;;;;;;;;;;;;
2020/03/01 08:50:20;;;;;;;8.6;4;;;;;;;;;;;;;
2020/03/01 08:52:45;;;;;;;5.6;3.1;;;;;;;;;;;;;
2020/03/01 08:55:10;;;;;;;8;4.7;;;;;;;;;;;;;
2020/03/01 08:57:36;;;;;;;5.4;3.5;;;;;;;;;;;;;
2020/03/01 09:00:01;;;;;;;3.8;2.2;;;;;;;;;;;;;
2020/03/01 09:04:51;;;;;;;2.2;1.5;;;;;;;;;;;;;
2020/03/01 09:07:16;;;;;;;3.1;2.3;;;;;;;;;;;;;
2020/03/01 09:09:41;;;;;;;2.5;1.3;;;;;;;;;;;;;
2020/03/01 09:14:32;;;;;;;3;1.3;;;;;;;;;;;;;
2020/03/01 09:16:57;;;;;;;5.2;2.3;;;;;;;;;;;;;
2020/03/01 09:19:22;;;;;;;4.5;2.5;;;;;;;;;;;;;
2020/03/01 09:21:47;;;;;;;3.3;1.5;;;;;;;;;;;;;
2020/03/01 09:24:12;;;;;;;2.2;1.3;;;;;;;;;;;;;
2020/03/01 09:26:37;;;;;;;2.9;1.7;;;;;;;;;;;;;
2020/03/01 09:29:02;;;;;;;2;1.5;;;;;;;;;;;;;
2020/03/01 09:31:27;;;;;;;2.6;1.6;;;;;;;;;;;;;
2020/03/01 09:33:52;;;;;;;4.4;1.9;;;;;;;;;;;;;
2020/03/01 09:36:17;;;;;;;1.3;1;;;;;;;;;;;;;
2020/03/01 09:38:42;;;;;;;2.8;1.4;;;;;;;;;;;;;
2020/03/01 09:41:08;;;;;;;2.8;1.5;;;;;;;;;;;;;
2020/03/01 09:43:33;;;;;;;2.5;1.5;;;;;;;;;;;;;
2020/03/01 09:45:58;;;;;;;3.3;1.4;;;;;;;;;;;;;
2020/03/01 09:48:23;;;;;;;2.1;1.2;;;;;;;;;;;;;
2020/03/01 09:50:48;;;;;;;3.1;1;;;;;;;;;;;;;
2020/03/01 09:53:13;;;;;;;1.9;1.4;;;;;;;;;;;;;
2020/03/01 09:55:38;;;;;;;2.3;1.3;;;;;;;;;;;;;
2020/03/01 09:58:03;;;;;;;1.7;1.2;;;;;;;;;;;;;
2020/03/01 10:00:28;;;;;;;2.5;1.1;;;;;;;;;;;;;
2020/03/01 10:02:54;;;;;;;1.7;1;;;;;;;;;;;;;
2020/03/01 10:05:19;;;;;;;1.6;1;;;;;;;;;;;;;
2020/03/01 10:07:44;;;;;;;2.4;1.2;;;;;;;;;;;;;
2020/03/01 10:10:09;;;;;;;2.4;1;;;;;;;;;;;;;
2020/03/01 10:12:34;;;;;;;1.9;0.9;;;;;;;;;;;;;
2020/03/01 10:15:00;;;;;;;1.6;0.9;;;;;;;;;;;;;
2020/03/01 10:17:25;;;;;;;1.4;0.9;;;;;;;;;;;;;
2020/03/01 10:19:50;;;;;;;3.2;1.3;;;;;;;;;;;;;
2020/03/01 10:22:15;;;;;;;3.6;1.7;;;;;;;;;;;;;
2020/03/01 10:24:40;;;;;;;4.5;1.9;;;;;;;;;;;;;
2020/03/01 10:27:05;;;;;;;2.2;1.2;;;;;;;;;;;;;
2020/03/01 10:29:31;;;;;;;2.8;1.1;;;;;;;;;;;;;
2020/03/01 10:31:55;;;;;;;2.1;1.1;;;;;;;;;;;;;
2020/03/01 10:34:21;;;;;;;3.4;1.2;;;;;;;;;;;;;
2020/03/01 10:36:46;;;;;;;2.5;1.7;;;;;;;;;;;;;
2020/03/01 10:39:11;;;;;;;2.4;1.2;;;;;;;;;;;;;
2020/03/01 10:41:36;;;;;;;2.6;1.5;;;;;;;;;;;;;
2020/03/01 10:44:01;;;;;;;3.1;1.4;;;;;;;;;;;;;
2020/03/01 10:46:26;;;;;;;2;1.2;;;;;;;;;;;;;
2020/03/01 10:48:51;;;;;;;5.7;2.2;;;;;;;;;;;;;
2020/03/01 10:51:16;;;;;;;2.3;1.4;;;;;;;;;;;;;
2020/03/01 10:53:41;;;;;;;2.2;1.3;;;;;;;;;;;;;
2020/03/01 10:56:06;;;;;;;3.5;1.1;;;;;;;;;;;;;
2020/03/01 10:58:31;;;;;;;3.6;2;;;;;;;;;;;;;
2020/03/01 11:00:56;;;;;;;2.7;1.6;;;;;;;;;;;;;
2020/03/01 11:03:21;;;;;;;2.5;1.6;;;;;;;;;;;;;
2020/03/01 11:05:46;;;;;;;5.3;2.3;;;;;;;;;;;;;
2020/03/01 11:08:11;;;;;;;4.2;1.6;;;;;;;;;;;;;
2020/03/01 11:10:36;;;;;;;1.6;1;;;;;;;;;;;;;
2020/03/01 11:13:02;;;;;;;4.2;1.9;;;;;;;;;;;;;
2020/03/01 11:15:27;;;;;;;2.5;1.2;;;;;;;;;;;;;
2020/03/01 11:17:52;;;;;;;2.2;1.2;;;;;;;;;;;;;
2020/03/01 11:20:17;;;;;;;3.3;1.3;;;;;;;;;;;;;
2020/03/01 11:22:42;;;;;;;2.1;0.8;;;;;;;;;;;;;
2020/03/01 11:25:07;;;;;;;1.9;1.1;;;;;;;;;;;;;
2020/03/01 11:27:32;;;;;;;1.9;1.1;;;;;;;;;;;;;
2020/03/01 11:29:57;;;;;;;1.1;0.9;;;;;;;;;;;;;
2020/03/01 11:34:47;;;;;;;1.4;0.8;;;;;;;;;;;;;
2020/03/01 11:37:13;;;;;;;2.3;0.9;;;;;;;;;;;;;
2020/03/01 11:39:39;;;;;;;2;1;;;;;;;;;;;;;
2020/03/01 11:42:03;;;;;;;2.1;1;;;;;;;;;;;;;
2020/03/01 11:44:28;;;;;;;1.9;0.7;;;;;;;;;;;;;
2020/03/01 11:46:53;;;;;;;1.8;0.9;;;;;;;;;;;;;
2020/03/01 11:49:19;;;;;;;1.3;0.8;;;;;;;;;;;;;
2020/03/01 11:51:44;;;;;;;3.3;1.4;;;;;;;;;;;;;
2020/03/01 11:54:09;;;;;;;5.5;1.7;;;;;;;;;;;;;
2020/03/01 11:56:34;;;;;;;3;1;;;;;;;;;;;;;
2020/03/01 11:58:59;;;;;;;2.5;0.8;;;;;;;;;;;;;
2020/03/01 12:01:24;;;;;;;2.2;0.9;;;;;;;;;;;;;
2020/03/01 12:03:49;;;;;;;0.9;0.6;;;;;;;;;;;;;
2020/03/01 12:06:14;;;;;;;1.3;0.7;;;;;;;;;;;;;
2020/03/01 12:08:39;;;;;;;2.1;1;;;;;;;;;;;;;
2020/03/01 12:11:04;;;;;;;3.4;0.9;;;;;;;;;;;;;
2020/03/01 12:13:29;;;;;;;2.2;0.9;;;;;;;;;;;;;
2020/03/01 12:15:55;;;;;;;1.7;0.9;;;;;;;;;;;;;
2020/03/01 12:18:20;;;;;;;2.2;0.9;;;;;;;;;;;;;
2020/03/01 12:20:45;;;;;;;1.8;0.8;;;;;;;;;;;;;
2020/03/01 12:23:10;;;;;;;1.7;0.9;;;;;;;;;;;;;
2020/03/01 12:25:35;;;;;;;1.5;0.8;;;;;;;;;;;;;
2020/03/01 12:28:00;;;;;;;2.1;0.9;;;;;;;;;;;;;
2020/03/01 12:30:25;;;;;;;1.6;0.8;;;;;;;;;;;;;
2020/03/01 12:32:50;;;;;;;1.3;0.7;;;;;;;;;;;;;
2020/03/01 12:35:15;;;;;;;3;0.8;;;;;;;;;;;;;
2020/03/01 12:37:40;;;;;;;2.5;0.9;;;;;;;;;;;;;
2020/03/01 12:40:06;;;;;;;1.3;0.8;;;;;;;;;;;;;
2020/03/01 12:42:31;;;;;;;1.7;0.7;;;;;;;;;;;;;
2020/03/01 12:44:56;;;;;;;1.1;0.7;;;;;;;;;;;;;
2020/03/01 12:47:21;;;;;;;3.4;0.8;;;;;;;;;;;;;
2020/03/01 12:49:46;;;;;;;1.3;0.8;;;;;;;;;;;;;
2020/03/01 12:52:11;;;;;;;1.9;0.8;;;;;;;;;;;;;
2020/03/01 12:54:36;;;;;;;2.8;0.9;;;;;;;;;;;;;
2020/03/01 12:57:01;;;;;;;1;0.6;;;;;;;;;;;;;
2020/03/01 12:59:27;;;;;;;1.2;0.7;;;;;;;;;;;;;
2020/03/01 13:01:52;;;;;;;1;0.7;;;;;;;;;;;;;
2020/03/01 13:04:17;;;;;;;0.9;0.6;;;;;;;;;;;;;
2020/03/01 13:06:42;;;;;;;0.8;0.6;;;;;;;;;;;;;
2020/03/01 13:09:08;;;;;;;1.2;0.8;;;;;;;;;;;;;
2020/03/01 13:11:32;;;;;;;0.8;0.6;;;;;;;;;;;;;
2020/03/01 13:13:57;;;;;;;1.1;0.7;;;;;;;;;;;;;
2020/03/01 13:16:23;;;;;;;1.4;0.7;;;;;;;;;;;;;
2020/03/01 13:18:48;;;;;;;1.6;0.6;;;;;;;;;;;;;
2020/03/01 13:21:28;;;;;;;0.9;0.5;;;;;;;;;;;;;
2020/03/01 13:23:38;;;;;;;1.4;0.7;;;;;;;;;;;;;
2020/03/01 13:26:03;;;;;;;1.1;0.5;;;;;;;;;;;;;
2020/03/01 13:28:28;;;;;;;2;0.6;;;;;;;;;;;;;
2020/03/01 13:30:53;;;;;;;1;0.6;;;;;;;;;;;;;
2020/03/01 13:33:18;;;;;;;1;0.6;;;;;;;;;;;;;
2020/03/01 13:35:43;;;;;;;0.9;0.5;;;;;;;;;;;;;
2020/03/01 13:38:09;;;;;;;1.2;0.5;;;;;;;;;;;;;
2020/03/01 13:40:34;;;;;;;1.9;0.7;;;;;;;;;;;;;
2020/03/01 13:42:59;;;;;;;1.8;0.7;;;;;;;;;;;;;
2020/03/01 13:45:24;;;;;;;1.1;0.6;;;;;;;;;;;;;
2020/03/01 13:47:49;;;;;;;1.6;0.7;;;;;;;;;;;;;
2020/03/01 13:50:14;;;;;;;1.4;0.7;;;;;;;;;;;;;
2020/03/01 13:52:39;;;;;;;0.8;0.5;;;;;;;;;;;;;
2020/03/01 13:55:05;;;;;;;1.1;0.5;;;;;;;;;;;;;
2020/03/01 13:57:30;;;;;;;1.5;0.8;;;;;;;;;;;;;
2020/03/01 13:59:55;;;;;;;1.5;0.8;;;;;;;;;;;;;
2020/03/01 14:02:20;;;;;;;2.1;0.8;;;;;;;;;;;;;
2020/03/01 14:04:45;;;;;;;0.9;0.6;;;;;;;;;;;;;
2020/03/01 14:07:10;;;;;;;0.8;0.6;;;;;;;;;;;;;
2020/03/01 14:09:35;;;;;;;1.3;0.8;;;;;;;;;;;;;
2020/03/01 14:12:01;;;;;;;1.5;0.7;;;;;;;;;;;;;
2020/03/01 14:14:25;;;;;;;0.8;0.5;;;;;;;;;;;;;
2020/03/01 14:16:50;;;;;;;1.7;0.7;;;;;;;;;;;;;
2020/03/01 14:19:16;;;;;;;1.2;0.7;;;;;;;;;;;;;
2020/03/01 14:21:41;;;;;;;1.7;0.7;;;;;;;;;;;;;
2020/03/01 14:24:06;;;;;;;2;0.8;;;;;;;;;;;;;
2020/03/01 14:26:31;;;;;;;1.3;0.7;;;;;;;;;;;;;
2020/03/01 14:28:56;;;;;;;1;0.8;;;;;;;;;;;;;
2020/03/01 14:31:22;;;;;;;2.3;0.7;;;;;;;;;;;;;
2020/03/01 14:33:47;;;;;;;1.2;0.7;;;;;;;;;;;;;
2020/03/01 14:36:12;;;;;;;1.1;0.5;;;;;;;;;;;;;
2020/03/01 14:38:37;;;;;;;2.6;0.7;;;;;;;;;;;;;
2020/03/01 14:41:02;;;;;;;1.5;0.7;;;;;;;;;;;;;
2020/03/01 14:43:27;;;;;;;4.9;0.7;;;;;;;;;;;;;
2020/03/01 14:45:52;;;;;;;1.4;0.8;;;;;;;;;;;;;
2020/03/01 14:48:18;;;;;;;1.9;0.8;;;;;;;;;;;;;
2020/03/01 14:50:43;;;;;;;1.9;0.7;;;;;;;;;;;;;
2020/03/01 14:53:08;;;;;;;1.7;0.8;;;;;;;;;;;;;
2020/03/01 14:55:33;;;;;;;1.9;0.8;;;;;;;;;;;;;
2020/03/01 14:57:58;;;;;;;2.2;0.8;;;;;;;;;;;;;
2020/03/01 15:00:24;;;;;;;2.5;0.9;;;;;;;;;;;;;
2020/03/01 15:02:49;;;;;;;1.4;0.7;;;;;;;;;;;;;
2020/03/01 15:05:14;;;;;;;1.9;0.6;;;;;;;;;;;;;
2020/03/01 15:07:39;;;;;;;1.6;0.8;;;;;;;;;;;;;
2020/03/01 15:10:04;;;;;;;2.4;0.8;;;;;;;;;;;;;
2020/03/01 15:12:29;;;;;;;1.5;0.8;;;;;;;;;;;;;
2020/03/01 15:14:54;;;;;;;1.4;0.8;;;;;;;;;;;;;
2020/03/01 15:17:19;;;;;;;2.4;0.9;;;;;;;;;;;;;
2020/03/01 15:19:44;;;;;;;2.3;0.7;;;;;;;;;;;;;
2020/03/01 15:22:09;;;;;;;2.4;0.8;;;;;;;;;;;;;
2020/03/01 15:24:35;;;;;;;2.2;0.9;;;;;;;;;;;;;
2020/03/01 15:27:00;;;;;;;1.9;0.8;;;;;;;;;;;;;
2020/03/01 15:29:25;;;;;;;2.1;0.9;;;;;;;;;;;;;
2020/03/01 15:31:50;;;;;;;2.4;0.9;;;;;;;;;;;;;
2020/03/01 15:34:16;;;;;;;1.7;0.9;;;;;;;;;;;;;
2020/03/01 15:36:41;;;;;;;1.3;0.9;;;;;;;;;;;;;
2020/03/01 15:39:06;;;;;;;1.4;1;;;;;;;;;;;;;
2020/03/01 15:41:34;;;;;;;1.6;0.8;;;;;;;;;;;;;
2020/03/01 15:43:56;;;;;;;1.3;0.8;;;;;;;;;;;;;
2020/03/01 15:46:22;;;;;;;1.6;0.9;;;;;;;;;;;;;
2020/03/01 15:48:47;;;;;;;2.4;1;;;;;;;;;;;;;
2020/03/01 15:51:12;;;;;;;1.8;1.1;;;;;;;;;;;;;
2020/03/01 15:53:37;;;;;;;1.9;1;;;;;;;;;;;;;
2020/03/01 15:56:03;;;;;;;1.7;1;;;;;;;;;;;;;
2020/03/01 15:58:28;;;;;;;2.6;1.1;;;;;;;;;;;;;
2020/03/01 16:00:53;;;;;;;1.6;1;;;;;;;;;;;;;
2020/03/01 16:03:19;;;;;;;1.6;1.1;;;;;;;;;;;;;
2020/03/01 16:05:44;;;;;;;1.3;0.8;;;;;;;;;;;;;
2020/03/01 16:08:09;;;;;;;1.9;1.1;;;;;;;;;;;;;
2020/03/01 16:10:34;;;;;;;2.6;1.1;;;;;;;;;;;;;
2020/03/01 16:12:59;;;;;;;2.6;1.1;;;;;;;;;;;;;
2020/03/01 16:15:24;;;;;;;2.2;1.2;;;;;;;;;;;;;
2020/03/01 16:17:49;;;;;;;3.1;1.4;;;;;;;;;;;;;
2020/03/01 16:20:15;;;;;;;4.3;1.3;;;;;;;;;;;;;
2020/03/01 16:22:40;;;;;;;2.4;1.3;;;;;;;;;;;;;
2020/03/01 16:25:05;;;;;;;3.7;1.4;;;;;;;;;;;;;
2020/03/01 16:27:30;;;;;;;3.5;1.2;;;;;;;;;;;;;
2020/03/01 16:29:55;;;;;;;2.7;1.4;;;;;;;;;;;;;
2020/03/01 16:32:20;;;;;;;2.4;1.1;;;;;;;;;;;;;
2020/03/01 16:34:45;;;;;;;2.9;1.3;;;;;;;;;;;;;
2020/03/01 16:37:11;;;;;;;2.3;1.2;;;;;;;;;;;;;
2020/03/01 16:39:36;;;;;;;3.2;1.4;;;;;;;;;;;;;
2020/03/01 16:42:22;;;;;;;5.8;1.3;;;;;;;;;;;;;
2020/03/01 16:44:26;;;;;;;5.5;1.5;;;;;;;;;;;;;
2020/03/01 16:46:51;;;;;;;2.8;1.2;;;;;;;;;;;;;
2020/03/01 16:49:16;;;;;;;3.8;1.4;;;;;;;;;;;;;
2020/03/01 16:51:41;;;;;;;4.3;1.2;;;;;;;;;;;;;
2020/03/01 16:54:07;;;;;;;3.3;1.3;;;;;;;;;;;;;
2020/03/01 16:56:32;;;;;;;3.6;1;;;;;;;;;;;;;
2020/03/01 16:58:57;;;;;;;4.6;1.1;;;;;;;;;;;;;
2020/03/01 17:01:22;;;;;;;3.8;1.2;;;;;;;;;;;;;
2020/03/01 17:03:47;;;;;;;1.6;1.2;;;;;;;;;;;;;
2020/03/01 17:06:12;;;;;;;3.3;1.4;;;;;;;;;;;;;
2020/03/01 17:08:37;;;;;;;4.4;2.5;;;;;;;;;;;;;
2020/03/01 17:11:02;;;;;;;5.4;3;;;;;;;;;;;;;
2020/03/01 17:13:28;;;;;;;10.1;4.2;;;;;;;;;;;;;
2020/03/01 17:15:58;;;;;;;10.8;4.3;;;;;;;;;;;;;
2020/03/01 17:18:18;;;;;;;7.2;4.1;;;;;;;;;;;;;
2020/03/01 17:20:43;;;;;;;7.8;4;;;;;;;;;;;;;
2020/03/01 17:23:08;;;;;;;7.3;3.5;;;;;;;;;;;;;
2020/03/01 17:25:33;;;;;;;7.9;3.2;;;;;;;;;;;;;
2020/03/01 17:27:58;;;;;;;4.5;2.5;;;;;;;;;;;;;
2020/03/01 17:30:23;;;;;;;4.4;2;;;;;;;;;;;;;
2020/03/01 17:32:49;;;;;;;4.4;1.9;;;;;;;;;;;;;
2020/03/01 17:35:14;;;;;;;4.2;2.3;;;;;;;;;;;;;
2020/03/01 17:37:39;;;;;;;7.8;3.4;;;;;;;;;;;;;
2020/03/01 17:40:04;;;;;;;7.7;5;;;;;;;;;;;;;
2020/03/01 17:42:29;;;;;;;5.7;2.7;;;;;;;;;;;;;
2020/03/01 17:44:54;;;;;;;6.5;3.1;;;;;;;;;;;;;
2020/03/01 17:47:19;;;;;;;13;10.9;;;;;;;;;;;;;
2020/03/01 17:49:44;;;;;;;10;8.1;;;;;;;;;;;;;
2020/03/01 17:52:09;;;;;;;7.2;4.2;;;;;;;;;;;;;
2020/03/01 17:54:34;;;;;;;6.5;3.1;;;;;;;;;;;;;